createdAt,value
2022-08-07T00:01:43.260Z,18.90
2022-08-07T00:06:29.273Z,19.40
2022-08-07T00:11:47.844Z,19.00
2022-08-07T00:17:00.227Z,18.90
2022-08-07T00:22:04.013Z,19.10
2022-08-07T00:27:07.811Z,18.80
2022-08-07T00:32:13.786Z,18.50
2022-08-07T00:37:17.795Z,18.70
2022-08-07T00:42:29.076Z,18.60
2022-08-07T00:48:08.187Z,18.70
2022-08-07T00:52:54.493Z,18.20
2022-08-07T00:57:56.725Z,18.40
2022-08-07T01:02:59.746Z,18.30
2022-08-07T01:08:03.621Z,18.30
2022-08-07T01:13:05.962Z,18.10
2022-08-07T01:18:09.650Z,18.20
2022-08-07T01:23:14.469Z,18.00
2022-08-07T01:28:18.128Z,18.00
2022-08-07T01:33:22.808Z,18.00
2022-08-07T01:38:29.146Z,17.70
2022-08-07T01:43:34.605Z,18.00
2022-08-07T01:48:42.418Z,17.70
2022-08-07T01:54:11.868Z,17.70
2022-08-07T01:59:44.146Z,17.80
2022-08-07T02:04:56.130Z,17.70
2022-08-07T02:10:01.730Z,17.90
2022-08-07T02:15:08.535Z,17.60
2022-08-07T02:20:19.699Z,17.40
2022-08-07T02:26:10.981Z,17.60
2022-08-07T02:30:51.509Z,17.50
2022-08-07T02:36:29.410Z,17.40
2022-08-07T02:41:37.338Z,17.50
2022-08-07T02:46:46.530Z,17.80
2022-08-07T02:51:53.453Z,17.50
2022-08-07T02:57:02.204Z,17.50
2022-08-07T03:02:10.339Z,17.80
2022-08-07T03:07:14.466Z,17.60
2022-08-07T03:12:22.562Z,17.60
2022-08-07T03:17:36.405Z,17.70
2022-08-07T03:22:58.707Z,17.70
2022-08-07T03:28:09.638Z,17.70
2022-08-07T03:33:32.312Z,17.90
2022-08-07T03:38:44.434Z,17.80
2022-08-07T03:43:57.341Z,17.80
2022-08-07T03:49:02.462Z,17.80
2022-08-07T03:54:36.187Z,17.80
2022-08-07T03:59:29.104Z,17.80
2022-08-07T04:04:32.781Z,17.80
2022-08-07T04:09:44.889Z,17.60
2022-08-07T04:14:56.695Z,17.70
2022-08-07T04:19:59.385Z,17.60
2022-08-07T04:25:02.516Z,17.90
2022-08-07T04:30:11.782Z,17.40
2022-08-07T04:35:18.131Z,17.20
2022-08-07T04:40:30.188Z,17.60
2022-08-07T04:46:12.399Z,17.30
2022-08-07T04:51:53.972Z,17.20
2022-08-07T04:58:10.080Z,17.10
2022-08-07T05:02:57.089Z,17.30
2022-08-07T05:08:59.023Z,17.10
2022-08-07T05:14:53.518Z,17.30
2022-08-07T05:19:49.626Z,17.10
2022-08-07T05:24:55.385Z,17.20
2022-08-07T05:29:59.708Z,17.30
2022-08-07T05:35:03.616Z,17.40
2022-08-07T05:40:17.809Z,17.80
2022-08-07T05:45:28.232Z,17.80
2022-08-07T05:50:50.569Z,18.10
2022-08-07T05:56:02.216Z,18.30
2022-08-07T06:01:34.933Z,18.50
2022-08-07T06:06:46.047Z,18.80
2022-08-07T06:11:50.962Z,19.10
2022-08-07T06:16:56.190Z,19.40
2022-08-07T06:22:15.513Z,19.60
2022-08-07T06:28:00.208Z,19.90
2022-08-07T06:32:49.491Z,20.30
2022-08-07T06:37:52.885Z,20.40
2022-08-07T06:42:58.478Z,20.80
2022-08-07T06:48:01.820Z,21.20
2022-08-07T06:53:07.331Z,21.40
2022-08-07T06:58:36.289Z,21.70
2022-08-07T07:03:50.014Z,22.00
2022-08-07T07:09:23.360Z,22.50
2022-08-07T07:14:29.031Z,22.60
2022-08-07T07:19:57.223Z,22.80
2022-08-07T07:26:30.392Z,22.90
2022-08-07T07:30:37.819Z,23.00
2022-08-07T07:36:04.936Z,23.20
2022-08-07T07:41:50.878Z,23.60
2022-08-07T07:47:01.238Z,23.70
2022-08-07T07:52:17.013Z,23.80
2022-08-07T07:57:29.079Z,23.70
2022-08-07T08:03:04.547Z,24.20
2022-08-07T08:08:35.584Z,24.40
2022-08-07T08:13:52.924Z,24.50
2022-08-07T08:19:00.362Z,24.80
2022-08-07T08:24:36.029Z,25.10
2022-08-07T08:29:56.276Z,25.00
2022-08-07T08:35:01.489Z,25.10
2022-08-07T08:40:23.584Z,25.30
2022-08-07T08:46:00.669Z,25.40
2022-08-07T08:52:01.141Z,25.70
2022-08-07T08:56:58.130Z,25.90
2022-08-07T09:02:37.359Z,25.90
2022-08-07T09:08:11.726Z,26.10
2022-08-07T09:13:38.025Z,26.30
2022-08-07T09:19:00.989Z,26.00
2022-08-07T09:24:58.554Z,26.60
2022-08-07T09:30:08.691Z,26.70
2022-08-07T09:36:03.238Z,26.90
2022-08-07T09:41:58.357Z,27.10
2022-08-07T09:47:57.710Z,27.20
2022-08-07T09:53:02.804Z,27.10
2022-08-07T09:58:19.941Z,27.50
2022-08-07T10:04:05.164Z,27.70
2022-08-07T10:10:00.329Z,27.90
2022-08-07T10:15:29.624Z,28.00
2022-08-07T10:20:50.327Z,28.10
2022-08-07T10:26:24.989Z,28.30
2022-08-07T10:31:49.532Z,28.40
2022-08-07T10:37:04.040Z,28.60
2022-08-07T10:42:31.252Z,28.80
2022-08-07T10:48:09.887Z,28.70
2022-08-07T10:53:44.334Z,29.00
2022-08-07T10:59:05.218Z,29.20
2022-08-07T11:04:32.088Z,29.40
2022-08-07T11:10:09.019Z,29.50
2022-08-07T11:15:17.294Z,29.70
2022-08-07T11:20:41.020Z,29.80
2022-08-07T11:25:54.846Z,30.10
2022-08-07T11:37:18.388Z,30.50
2022-08-07T11:42:49.957Z,30.80
2022-08-07T11:48:29.259Z,31.00
2022-08-07T11:54:12.677Z,31.30
2022-08-07T12:00:12.420Z,31.50
2022-08-07T12:05:41.754Z,31.70
2022-08-07T12:11:08.129Z,31.90
2022-08-07T12:16:30.395Z,32.20
2022-08-07T12:22:35.877Z,32.50
2022-08-07T12:27:16.771Z,32.70
2022-08-07T12:32:34.795Z,33.00
2022-08-07T12:38:09.244Z,33.20
2022-08-07T12:43:09.663Z,33.40
2022-08-07T12:48:27.915Z,33.60
2022-08-07T12:54:23.971Z,33.70
2022-08-07T12:59:02.714Z,33.80
2022-08-07T13:04:32.634Z,34.00
2022-08-07T13:10:20.931Z,34.20
2022-08-07T13:15:36.213Z,34.20
2022-08-07T13:20:46.474Z,34.60
2022-08-07T13:26:16.010Z,34.80
2022-08-07T13:31:32.046Z,35.10
2022-08-07T13:36:59.396Z,35.30
2022-08-07T13:42:03.223Z,35.70
2022-08-07T13:47:09.095Z,36.00
2022-08-07T13:52:32.455Z,36.50
2022-08-07T13:57:47.885Z,36.50
2022-08-07T14:03:06.406Z,36.80
2022-08-07T14:08:10.365Z,37.40
2022-08-07T14:13:18.436Z,37.80
2022-08-07T14:18:57.280Z,38.50
2022-08-07T14:24:07.256Z,38.90
2022-08-07T14:30:08.146Z,39.50
2022-08-07T14:34:46.279Z,39.90
2022-08-07T14:40:17.515Z,40.60
2022-08-07T14:45:21.626Z,41.40
2022-08-07T14:50:26.136Z,42.10
2022-08-07T14:55:34.007Z,42.70
2022-08-07T15:00:38.477Z,43.20
2022-08-07T15:05:55.205Z,43.80
2022-08-07T15:11:14.997Z,44.10
2022-08-07T15:21:59.409Z,44.50
2022-08-07T15:27:20.448Z,44.70
2022-08-07T15:32:38.912Z,44.90
2022-08-07T15:38:04.408Z,45.00
2022-08-07T15:43:33.227Z,45.20
2022-08-07T15:54:06.474Z,45.20
2022-08-07T15:59:20.358Z,45.20
2022-08-07T16:04:44.136Z,45.20
2022-08-07T16:09:52.889Z,45.10
2022-08-07T16:15:42.148Z,45.20
2022-08-07T16:21:44.401Z,45.40
2022-08-07T16:26:31.034Z,45.70
2022-08-07T16:32:02.879Z,46.10
2022-08-07T16:38:05.600Z,45.90
2022-08-07T16:42:57.728Z,45.50
2022-08-07T16:48:53.857Z,44.40
2022-08-07T16:54:34.641Z,42.70
2022-08-07T16:59:51.452Z,41.00
2022-08-07T17:06:02.374Z,39.50
2022-08-07T17:10:39.268Z,38.20
2022-08-07T17:15:51.753Z,37.10
2022-08-07T17:20:56.281Z,36.30
2022-08-07T17:26:50.046Z,35.60
2022-08-07T17:32:30.999Z,35.00
2022-08-07T17:38:09.875Z,34.40
2022-08-07T17:44:01.948Z,33.90
2022-08-07T17:49:01.736Z,33.50
2022-08-07T17:54:29.685Z,33.10
2022-08-07T18:00:05.535Z,32.70
2022-08-07T18:06:03.222Z,32.40
2022-08-07T18:12:06.523Z,32.10
2022-08-07T18:16:57.666Z,31.70
2022-08-07T18:22:15.250Z,31.40
2022-08-07T18:27:38.772Z,31.10
2022-08-07T18:33:12.041Z,30.80
2022-08-07T18:38:57.453Z,30.50
2022-08-07T18:44:20.452Z,30.20
2022-08-07T18:50:35.236Z,29.60
2022-08-07T18:55:43.235Z,29.40
2022-08-07T19:01:01.812Z,29.30
2022-08-07T19:06:11.818Z,28.70
2022-08-07T19:11:34.778Z,28.60
2022-08-07T19:17:05.760Z,28.40
2022-08-07T19:22:31.150Z,27.70
2022-08-07T19:28:58.696Z,27.80
2022-08-07T19:33:10.138Z,27.50
2022-08-07T19:38:20.547Z,27.30
2022-08-07T19:43:48.913Z,27.00
2022-08-07T19:48:57.030Z,26.70
2022-08-07T19:54:43.861Z,26.40
2022-08-07T19:59:41.025Z,26.30
2022-08-07T20:04:49.073Z,26.30
2022-08-07T20:10:36.282Z,25.50
2022-08-07T20:15:22.332Z,25.60
2022-08-07T20:20:29.622Z,25.60
2022-08-07T20:25:32.852Z,25.20
2022-08-07T20:30:46.892Z,25.00
2022-08-07T20:35:54.664Z,24.70
2022-08-07T20:41:10.047Z,24.60
2022-08-07T20:46:26.124Z,24.40
2022-08-07T20:51:35.892Z,24.20
2022-08-07T20:56:46.188Z,24.20
2022-08-07T21:01:58.162Z,23.90
2022-08-07T21:07:03.915Z,23.60
2022-08-07T21:12:25.899Z,23.40
2022-08-07T21:18:01.772Z,23.40
2022-08-07T21:23:08.559Z,23.10
2022-08-07T21:28:49.799Z,23.20
2022-08-07T21:33:56.257Z,22.60
2022-08-07T21:39:45.935Z,22.70
2022-08-07T21:44:55.797Z,22.40
2022-08-07T21:50:17.419Z,22.20
2022-08-07T21:55:38.431Z,21.70
2022-08-07T22:00:50.035Z,21.90
2022-08-07T22:05:58.405Z,21.70
2022-08-07T22:11:06.378Z,21.70
2022-08-07T22:16:39.713Z,21.40
2022-08-07T22:22:04.380Z,21.40
2022-08-07T22:27:23.559Z,21.30
2022-08-07T22:33:04.708Z,21.30
2022-08-07T22:38:34.202Z,21.00
2022-08-07T22:43:50.364Z,21.00
2022-08-07T22:49:16.130Z,20.90
2022-08-07T22:54:49.306Z,21.10
2022-08-07T22:59:55.660Z,20.80
2022-08-07T23:06:08.404Z,20.80
2022-08-07T23:10:52.389Z,20.60
2022-08-07T23:16:39.205Z,20.60
2022-08-07T23:21:49.576Z,20.30
2022-08-07T23:26:57.997Z,20.30
2022-08-07T23:34:22.483Z,20.50
2022-08-07T23:38:00.262Z,20.50
2022-08-07T23:43:22.013Z,20.30
2022-08-07T23:48:35.777Z,20.00
2022-08-07T23:53:56.211Z,20.10
